Saint Johns, Pennsylvania
Current Conditions -  °F | °C
As of 12:15 PM on Sunday 23 Nov 2014 (Local Time) from KHZL Reporting Station
Scattered Clouds Scattered Clouds  
Wind Chill: 54°   Ceiling: Unl
Heat Index: 54°   Visibility: 10mi
Dew Point: 27°   Wind: 6mph
Humidity: 35%   Direction: 340°NNW
Pressure: 30.12"   Gusts: NA
Location:  41.03°N, 76.01°W
Report Text: KHZL 231715Z AUTO 34005KT 10SM SCT110 12/M03 A3012 RMK AO2
Loading
Personal Weather Stations






























Interactive Weather Map New forecast layout! Learn more

10-Day Weather Forecast

Advertisements
Track Severe Weather on mobile